sensor_id;sensor_type;location;lat;lon;timestamp;temperature;humidity
3986;DHT22;2007;48.750;9.278;2023-06-14T00:02:01;25.90;54.10
3986;DHT22;2007;48.750;9.278;2023-06-14T00:04:30;25.90;54.00
3986;DHT22;2007;48.750;9.278;2023-06-14T00:06:58;25.90;54.00
3986;DHT22;2007;48.750;9.278;2023-06-14T00:09:26;25.90;54.10
3986;DHT22;2007;48.750;9.278;2023-06-14T00:11:56;25.90;54.10
3986;DHT22;2007;48.750;9.278;2023-06-14T00:14:24;25.90;54.00
3986;DHT22;2007;48.750;9.278;2023-06-14T00:16:51;25.90;54.00
3986;DHT22;2007;48.750;9.278;2023-06-14T00:19:21;25.90;54.00
3986;DHT22;2007;48.750;9.278;2023-06-14T00:21:49;25.90;54.00
3986;DHT22;2007;48.750;9.278;2023-06-14T00:24:19;25.90;54.00
3986;DHT22;2007;48.750;9.278;2023-06-14T00:26:47;25.90;54.00
3986;DHT22;2007;48.750;9.278;2023-06-14T00:29:16;25.90;54.00
3986;DHT22;2007;48.750;9.278;2023-06-14T00:31:44;25.90;54.00
3986;DHT22;2007;48.750;9.278;2023-06-14T00:34:13;25.90;54.00
3986;DHT22;2007;48.750;9.278;2023-06-14T00:36:41;25.80;53.90
3986;DHT22;2007;48.750;9.278;2023-06-14T00:39:09;25.90;53.90
3986;DHT22;2007;48.750;9.278;2023-06-14T00:41:39;25.90;54.00
3986;DHT22;2007;48.750;9.278;2023-06-14T00:44:07;25.80;53.90
3986;DHT22;2007;48.750;9.278;2023-06-14T00:46:36;25.80;53.90
3986;DHT22;2007;48.750;9.278;2023-06-14T00:49:04;25.80;53.90
3986;DHT22;2007;48.750;9.278;2023-06-14T00:51:33;25.80;53.90
3986;DHT22;2007;48.750;9.278;2023-06-14T00:54:01;25.80;53.90
3986;DHT22;2007;48.750;9.278;2023-06-14T00:56:29;25.80;53.90
3986;DHT22;2007;48.750;9.278;2023-06-14T00:58:58;25.80;53.90
3986;DHT22;2007;48.750;9.278;2023-06-14T01:01:26;25.80;54.60
3986;DHT22;2007;48.750;9.278;2023-06-14T01:03:56;25.80;53.90
3986;DHT22;2007;48.750;9.278;2023-06-14T01:06:33;25.80;53.90
3986;DHT22;2007;48.750;9.278;2023-06-14T01:09:07;25.80;53.90
3986;DHT22;2007;48.750;9.278;2023-06-14T01:11:43;25.80;53.90
3986;DHT22;2007;48.750;9.278;2023-06-14T01:14:14;25.80;54.00
3986;DHT22;2007;48.750;9.278;2023-06-14T01:16:44;25.80;53.90
3986;DHT22;2007;48.750;9.278;2023-06-14T01:19:16;25.80;54.00
3986;DHT22;2007;48.750;9.278;2023-06-14T01:21:44;25.80;53.90
3986;DHT22;2007;48.750;9.278;2023-06-14T01:24:13;25.80;53.90
3986;DHT22;2007;48.750;9.278;2023-06-14T01:26:41;25.80;53.90
3986;DHT22;2007;48.750;9.278;2023-06-14T01:29:13;25.80;53.90
3986;DHT22;2007;48.750;9.278;2023-06-14T01:31:44;25.80;53.90
3986;DHT22;2007;48.750;9.278;2023-06-14T01:34:13;25.80;53.90
3986;DHT22;2007;48.750;9.278;2023-06-14T01:36:43;25.80;53.90
3986;DHT22;2007;48.750;9.278;2023-06-14T01:39:14;25.80;53.90
3986;DHT22;2007;48.750;9.278;2023-06-14T01:41:43;25.80;53.90
3986;DHT22;2007;48.750;9.278;2023-06-14T01:44:14;25.80;53.90
3986;DHT22;2007;48.750;9.278;2023-06-14T01:46:43;25.80;53.90
3986;DHT22;2007;48.750;9.278;2023-06-14T01:49:12;25.70;53.80
3986;DHT22;2007;48.750;9.278;2023-06-14T01:51:40;25.80;53.90
3986;DHT22;2007;48.750;9.278;2023-06-14T01:54:08;25.80;53.90
3986;DHT22;2007;48.750;9.278;2023-06-14T01:56:37;25.80;53.90
3986;DHT22;2007;48.750;9.278;2023-06-14T01:59:05;25.80;53.90
3986;DHT22;2007;48.750;9.278;2023-06-14T02:01:34;25.80;53.90
3986;DHT22;2007;48.750;9.278;2023-06-14T02:04:03;25.80;53.90
3986;DHT22;2007;48.750;9.278;2023-06-14T02:06:31;25.70;53.80
3986;DHT22;2007;48.750;9.278;2023-06-14T02:09:01;25.70;53.80
3986;DHT22;2007;48.750;9.278;2023-06-14T02:11:30;25.70;53.80
3986;DHT22;2007;48.750;9.278;2023-06-14T02:13:59;25.70;53.80
3986;DHT22;2007;48.750;9.278;2023-06-14T02:16:28;25.70;53.80
3986;DHT22;2007;48.750;9.278;2023-06-14T02:18:57;25.70;53.80
3986;DHT22;2007;48.750;9.278;2023-06-14T02:21:25;25.70;53.90
3986;DHT22;2007;48.750;9.278;2023-06-14T02:23:53;25.70;53.80
3986;DHT22;2007;48.750;9.278;2023-06-14T02:26:21;25.70;53.80
3986;DHT22;2007;48.750;9.278;2023-06-14T02:28:49;25.70;53.90
3986;DHT22;2007;48.750;9.278;2023-06-14T02:31:18;25.70;53.80
3986;DHT22;2007;48.750;9.278;2023-06-14T02:33:46;25.70;53.80
3986;DHT22;2007;48.750;9.278;2023-06-14T02:36:14;25.70;53.90
3986;DHT22;2007;48.750;9.278;2023-06-14T02:38:42;25.70;53.80
3986;DHT22;2007;48.750;9.278;2023-06-14T02:41:10;25.70;53.80
3986;DHT22;2007;48.750;9.278;2023-06-14T02:43:38;25.70;53.80
3986;DHT22;2007;48.750;9.278;2023-06-14T02:46:06;25.70;53.80
3986;DHT22;2007;48.750;9.278;2023-06-14T02:48:35;25.70;53.80
3986;DHT22;2007;48.750;9.278;2023-06-14T02:51:03;25.70;53.80
3986;DHT22;2007;48.750;9.278;2023-06-14T02:53:32;25.70;53.80
3986;DHT22;2007;48.750;9.278;2023-06-14T02:56:00;25.70;53.90
3986;DHT22;2007;48.750;9.278;2023-06-14T02:58:30;25.70;53.80
3986;DHT22;2007;48.750;9.278;2023-06-14T03:00:59;25.70;53.80
3986;DHT22;2007;48.750;9.278;2023-06-14T03:03:30;25.70;53.80
3986;DHT22;2007;48.750;9.278;2023-06-14T03:06:00;25.70;53.80
3986;DHT22;2007;48.750;9.278;2023-06-14T03:08:31;25.70;53.90
3986;DHT22;2007;48.750;9.278;2023-06-14T03:11:05;25.70;53.80
3986;DHT22;2007;48.750;9.278;2023-06-14T03:13:33;25.60;53.80
3986;DHT22;2007;48.750;9.278;2023-06-14T03:16:01;25.70;53.90
3986;DHT22;2007;48.750;9.278;2023-06-14T03:18:30;25.60;53.80
3986;DHT22;2007;48.750;9.278;2023-06-14T03:21:04;25.60;53.80
3986;DHT22;2007;48.750;9.278;2023-06-14T03:23:33;25.60;53.80
3986;DHT22;2007;48.750;9.278;2023-06-14T03:26:01;25.60;53.80
3986;DHT22;2007;48.750;9.278;2023-06-14T03:28:29;25.60;53.80
3986;DHT22;2007;48.750;9.278;2023-06-14T03:30:57;25.60;53.80
3986;DHT22;2007;48.750;9.278;2023-06-14T03:33:25;25.60;53.80
3986;DHT22;2007;48.750;9.278;2023-06-14T03:35:53;25.60;53.80
3986;DHT22;2007;48.750;9.278;2023-06-14T03:38:24;25.60;53.80
3986;DHT22;2007;48.750;9.278;2023-06-14T03:40:52;25.60;53.80
3986;DHT22;2007;48.750;9.278;2023-06-14T03:43:20;25.60;53.80
3986;DHT22;2007;48.750;9.278;2023-06-14T03:45:48;25.60;53.80
3986;DHT22;2007;48.750;9.278;2023-06-14T03:48:16;25.60;53.80
3986;DHT22;2007;48.750;9.278;2023-06-14T03:50:44;25.60;53.80
3986;DHT22;2007;48.750;9.278;2023-06-14T03:53:12;25.60;53.80
3986;DHT22;2007;48.750;9.278;2023-06-14T03:55:42;25.60;53.80
3986;DHT22;2007;48.750;9.278;2023-06-14T03:58:12;25.60;53.80
3986;DHT22;2007;48.750;9.278;2023-06-14T04:00:41;25.60;53.80
3986;DHT22;2007;48.750;9.278;2023-06-14T04:03:09;25.60;53.80
3986;DHT22;2007;48.750;9.278;2023-06-14T04:05:40;25.60;53.90
3986;DHT22;2007;48.750;9.278;2023-06-14T04:08:09;25.60;53.80
3986;DHT22;2007;48.750;9.278;2023-06-14T04:10:37;25.60;53.80
3986;DHT22;2007;48.750;9.278;2023-06-14T04:13:06;25.60;53.90
3986;DHT22;2007;48.750;9.278;2023-06-14T04:15:34;25.60;53.80
3986;DHT22;2007;48.750;9.278;2023-06-14T04:18:03;25.60;53.80
3986;DHT22;2007;48.750;9.278;2023-06-14T04:20:31;25.60;53.80
3986;DHT22;2007;48.750;9.278;2023-06-14T04:23:11;25.60;53.80
3986;DHT22;2007;48.750;9.278;2023-06-14T04:25:39;25.60;53.80
3986;DHT22;2007;48.750;9.278;2023-06-14T04:28:13;25.60;53.80
3986;DHT22;2007;48.750;9.278;2023-06-14T04:30:42;25.50;53.80
3986;DHT22;2007;48.750;9.278;2023-06-14T04:33:11;25.50;53.80
3986;DHT22;2007;48.750;9.278;2023-06-14T04:35:40;25.50;53.80
3986;DHT22;2007;48.750;9.278;2023-06-14T04:38:08;25.60;53.80
3986;DHT22;2007;48.750;9.278;2023-06-14T04:40:36;25.50;53.80
3986;DHT22;2007;48.750;9.278;2023-06-14T04:43:09;25.50;53.80
3986;DHT22;2007;48.750;9.278;2023-06-14T04:45:40;25.50;53.80
3986;DHT22;2007;48.750;9.278;2023-06-14T04:48:13;25.50;53.80
3986;DHT22;2007;48.750;9.278;2023-06-14T04:50:41;25.50;53.80
3986;DHT22;2007;48.750;9.278;2023-06-14T04:53:10;25.50;53.80
3986;DHT22;2007;48.750;9.278;2023-06-14T04:55:38;25.50;53.70
3986;DHT22;2007;48.750;9.278;2023-06-14T04:58:06;25.50;53.80
3986;DHT22;2007;48.750;9.278;2023-06-14T05:00:34;25.50;53.80
3986;DHT22;2007;48.750;9.278;2023-06-14T05:03:04;25.50;53.80
3986;DHT22;2007;48.750;9.278;2023-06-14T05:05:33;25.50;53.90
3986;DHT22;2007;48.750;9.278;2023-06-14T05:08:01;25.50;53.80
3986;DHT22;2007;48.750;9.278;2023-06-14T05:10:29;25.50;53.80
3986;DHT22;2007;48.750;9.278;2023-06-14T05:12:57;25.50;53.90
3986;DHT22;2007;48.750;9.278;2023-06-14T05:15:25;25.50;53.90
3986;DHT22;2007;48.750;9.278;2023-06-14T05:17:53;25.50;53.80
3986;DHT22;2007;48.750;9.278;2023-06-14T05:20:23;25.50;53.80
3986;DHT22;2007;48.750;9.278;2023-06-14T05:22:53;25.40;53.70
3986;DHT22;2007;48.750;9.278;2023-06-14T05:25:21;25.50;53.80
3986;DHT22;2007;48.750;9.278;2023-06-14T05:27:49;25.40;53.80
3986;DHT22;2007;48.750;9.278;2023-06-14T05:30:17;25.50;53.90
3986;DHT22;2007;48.750;9.278;2023-06-14T05:32:45;25.40;53.80
3986;DHT22;2007;48.750;9.278;2023-06-14T05:35:14;25.50;53.90
3986;DHT22;2007;48.750;9.278;2023-06-14T05:37:43;25.40;53.80
3986;DHT22;2007;48.750;9.278;2023-06-14T05:40:12;25.40;53.80
3986;DHT22;2007;48.750;9.278;2023-06-14T05:42:40;25.40;53.80
3986;DHT22;2007;48.750;9.278;2023-06-14T05:45:08;25.40;53.80
3986;DHT22;2007;48.750;9.278;2023-06-14T05:47:36;25.40;53.80
3986;DHT22;2007;48.750;9.278;2023-06-14T05:50:05;25.40;53.80
3986;DHT22;2007;48.750;9.278;2023-06-14T05:52:33;25.40;53.80
3986;DHT22;2007;48.750;9.278;2023-06-14T05:55:03;25.40;53.80
3986;DHT22;2007;48.750;9.278;2023-06-14T05:57:32;25.40;53.90
3986;DHT22;2007;48.750;9.278;2023-06-14T06:00:00;25.40;53.90
3986;DHT22;2007;48.750;9.278;2023-06-14T06:02:32;25.40;53.90
3986;DHT22;2007;48.750;9.278;2023-06-14T06:05:00;25.40;53.80
3986;DHT22;2007;48.750;9.278;2023-06-14T06:07:29;25.40;53.80
3986;DHT22;2007;48.750;9.278;2023-06-14T06:09:57;25.40;53.90
3986;DHT22;2007;48.750;9.278;2023-06-14T06:12:26;25.40;53.90
3986;DHT22;2007;48.750;9.278;2023-06-14T06:14:54;25.40;53.90
3986;DHT22;2007;48.750;9.278;2023-06-14T06:17:22;25.40;53.80
3986;DHT22;2007;48.750;9.278;2023-06-14T06:19:50;25.40;53.80
3986;DHT22;2007;48.750;9.278;2023-06-14T06:22:18;25.40;53.80
3986;DHT22;2007;48.750;9.278;2023-06-14T06:24:47;25.40;53.90
3986;DHT22;2007;48.750;9.278;2023-06-14T06:27:14;25.40;53.90
3986;DHT22;2007;48.750;9.278;2023-06-14T06:29:44;25.40;53.80
3986;DHT22;2007;48.750;9.278;2023-06-14T06:32:12;25.30;53.80
3986;DHT22;2007;48.750;9.278;2023-06-14T06:34:40;25.40;53.80
3986;DHT22;2007;48.750;9.278;2023-06-14T06:37:08;25.40;53.80
3986;DHT22;2007;48.750;9.278;2023-06-14T06:39:36;25.30;53.70
3986;DHT22;2007;48.750;9.278;2023-06-14T06:42:04;25.40;53.90
3986;DHT22;2007;48.750;9.278;2023-06-14T06:44:33;25.30;53.80
3986;DHT22;2007;48.750;9.278;2023-06-14T06:47:02;25.40;53.80
3986;DHT22;2007;48.750;9.278;2023-06-14T06:49:30;25.40;53.80
3986;DHT22;2007;48.750;9.278;2023-06-14T06:52:02;25.30;53.70
3986;DHT22;2007;48.750;9.278;2023-06-14T06:54:30;25.40;53.80
3986;DHT22;2007;48.750;9.278;2023-06-14T06:56:58;25.30;53.70
3986;DHT22;2007;48.750;9.278;2023-06-14T06:59:26;25.30;53.70
3986;DHT22;2007;48.750;9.278;2023-06-14T07:01:54;25.30;53.80
3986;DHT22;2007;48.750;9.278;2023-06-14T07:04:24;25.30;53.80
3986;DHT22;2007;48.750;9.278;2023-06-14T07:06:52;25.30;53.70
3986;DHT22;2007;48.750;9.278;2023-06-14T07:09:20;25.30;53.70
3986;DHT22;2007;48.750;9.278;2023-06-14T07:11:48;25.30;53.80
3986;DHT22;2007;48.750;9.278;2023-06-14T07:14:16;25.30;53.70
3986;DHT22;2007;48.750;9.278;2023-06-14T07:16:44;25.30;53.50
3986;DHT22;2007;48.750;9.278;2023-06-14T07:19:13;25.30;53.50
3986;DHT22;2007;48.750;9.278;2023-06-14T07:21:42;25.30;53.60
3986;DHT22;2007;48.750;9.278;2023-06-14T07:24:10;25.30;53.70
3986;DHT22;2007;48.750;9.278;2023-06-14T07:26:38;25.30;53.70
3986;DHT22;2007;48.750;9.278;2023-06-14T07:29:06;25.30;53.80
3986;DHT22;2007;48.750;9.278;2023-06-14T07:31:34;25.30;53.60
3986;DHT22;2007;48.750;9.278;2023-06-14T07:34:02;25.30;53.70
3986;DHT22;2007;48.750;9.278;2023-06-14T07:36:30;25.30;53.70
3986;DHT22;2007;48.750;9.278;2023-06-14T07:38:59;25.30;54.50
3986;DHT22;2007;48.750;9.278;2023-06-14T07:41:30;25.30;53.80
3986;DHT22;2007;48.750;9.278;2023-06-14T07:43:58;25.30;53.80
3986;DHT22;2007;48.750;9.278;2023-06-14T07:46:25;25.30;53.70
3986;DHT22;2007;48.750;9.278;2023-06-14T07:48:54;25.30;53.80
3986;DHT22;2007;48.750;9.278;2023-06-14T07:51:22;25.30;53.80
3986;DHT22;2007;48.750;9.278;2023-06-14T07:53:50;25.30;53.60
3986;DHT22;2007;48.750;9.278;2023-06-14T07:56:19;25.30;53.70
3986;DHT22;2007;48.750;9.278;2023-06-14T07:58:48;25.20;53.70
3986;DHT22;2007;48.750;9.278;2023-06-14T08:01:16;25.30;53.70
3986;DHT22;2007;48.750;9.278;2023-06-14T08:03:44;25.20;53.60
3986;DHT22;2007;48.750;9.278;2023-06-14T08:06:12;25.30;53.70
3986;DHT22;2007;48.750;9.278;2023-06-14T08:08:40;25.20;53.60
3986;DHT22;2007;48.750;9.278;2023-06-14T08:11:08;25.20;53.60
3986;DHT22;2007;48.750;9.278;2023-06-14T08:13:37;25.20;53.60
3986;DHT22;2007;48.750;9.278;2023-06-14T08:16:05;25.20;53.70
3986;DHT22;2007;48.750;9.278;2023-06-14T08:18:33;25.30;53.80
3986;DHT22;2007;48.750;9.278;2023-06-14T08:21:01;25.30;53.70
3986;DHT22;2007;48.750;9.278;2023-06-14T08:23:29;25.20;53.60
3986;DHT22;2007;48.750;9.278;2023-06-14T08:25:57;25.30;53.70
3986;DHT22;2007;48.750;9.278;2023-06-14T08:28:28;25.20;53.60
3986;DHT22;2007;48.750;9.278;2023-06-14T08:30:57;25.20;53.50
3986;DHT22;2007;48.750;9.278;2023-06-14T08:33:25;25.20;53.50
3986;DHT22;2007;48.750;9.278;2023-06-14T08:35:53;25.20;53.60
3986;DHT22;2007;48.750;9.278;2023-06-14T08:38:21;25.20;53.50
3986;DHT22;2007;48.750;9.278;2023-06-14T08:40:51;25.20;53.60
3986;DHT22;2007;48.750;9.278;2023-06-14T08:43:20;25.20;53.60
3986;DHT22;2007;48.750;9.278;2023-06-14T08:45:48;25.20;53.60
3986;DHT22;2007;48.750;9.278;2023-06-14T08:48:23;25.20;53.60
3986;DHT22;2007;48.750;9.278;2023-06-14T08:50:54;25.20;53.60
3986;DHT22;2007;48.750;9.278;2023-06-14T08:53:28;25.20;53.60
3986;DHT22;2007;48.750;9.278;2023-06-14T08:56:02;25.20;53.60
3986;DHT22;2007;48.750;9.278;2023-06-14T08:58:31;25.20;53.60
3986;DHT22;2007;48.750;9.278;2023-06-14T09:01:01;25.20;53.70
3986;DHT22;2007;48.750;9.278;2023-06-14T09:03:31;25.20;53.70
3986;DHT22;2007;48.750;9.278;2023-06-14T09:06:00;25.20;53.70
3986;DHT22;2007;48.750;9.278;2023-06-14T09:08:28;25.20;53.80
3986;DHT22;2007;48.750;9.278;2023-06-14T09:10:57;25.20;53.80
3986;DHT22;2007;48.750;9.278;2023-06-14T09:13:26;25.20;53.90
3986;DHT22;2007;48.750;9.278;2023-06-14T09:15:57;25.20;53.90
3986;DHT22;2007;48.750;9.278;2023-06-14T09:18:35;25.20;53.90
3986;DHT22;2007;48.750;9.278;2023-06-14T09:21:05;25.20;53.90
3986;DHT22;2007;48.750;9.278;2023-06-14T09:23:33;25.20;54.00
3986;DHT22;2007;48.750;9.278;2023-06-14T09:26:07;25.20;54.00
3986;DHT22;2007;48.750;9.278;2023-06-14T09:28:35;25.10;53.90
3986;DHT22;2007;48.750;9.278;2023-06-14T09:31:04;25.20;53.90
3986;DHT22;2007;48.750;9.278;2023-06-14T09:33:33;25.20;53.90
3986;DHT22;2007;48.750;9.278;2023-06-14T09:36:01;25.20;54.00
3986;DHT22;2007;48.750;9.278;2023-06-14T09:38:29;25.20;54.00
3986;DHT22;2007;48.750;9.278;2023-06-14T09:40:58;25.20;54.00
3986;DHT22;2007;48.750;9.278;2023-06-14T09:43:27;25.20;54.00
3986;DHT22;2007;48.750;9.278;2023-06-14T09:45:55;25.10;54.00
3986;DHT22;2007;48.750;9.278;2023-06-14T09:48:23;25.10;54.00
3986;DHT22;2007;48.750;9.278;2023-06-14T09:50:55;25.20;54.00
3986;DHT22;2007;48.750;9.278;2023-06-14T09:53:26;25.10;53.90
3986;DHT22;2007;48.750;9.278;2023-06-14T09:55:55;25.10;54.00
3986;DHT22;2007;48.750;9.278;2023-06-14T09:58:26;25.10;54.00
3986;DHT22;2007;48.750;9.278;2023-06-14T10:00:55;25.10;54.00
3986;DHT22;2007;48.750;9.278;2023-06-14T10:03:27;25.10;54.00
3986;DHT22;2007;48.750;9.278;2023-06-14T10:06:11;25.10;54.00
3986;DHT22;2007;48.750;9.278;2023-06-14T10:08:40;25.10;54.70
3986;DHT22;2007;48.750;9.278;2023-06-14T10:11:08;25.10;54.00
3986;DHT22;2007;48.750;9.278;2023-06-14T10:13:36;25.10;54.00
3986;DHT22;2007;48.750;9.278;2023-06-14T10:16:10;25.10;54.00
3986;DHT22;2007;48.750;9.278;2023-06-14T10:18:47;25.10;54.00
3986;DHT22;2007;48.750;9.278;2023-06-14T10:21:22;25.10;54.00
3986;DHT22;2007;48.750;9.278;2023-06-14T10:23:56;25.10;54.00
3986;DHT22;2007;48.750;9.278;2023-06-14T10:26:28;25.10;54.00
3986;DHT22;2007;48.750;9.278;2023-06-14T10:28:58;25.00;54.00
3986;DHT22;2007;48.750;9.278;2023-06-14T10:31:41;25.10;54.00
3986;DHT22;2007;48.750;9.278;2023-06-14T10:34:10;25.10;54.00
3986;DHT22;2007;48.750;9.278;2023-06-14T10:36:43;25.10;54.10
3986;DHT22;2007;48.750;9.278;2023-06-14T10:39:15;25.00;54.00
3986;DHT22;2007;48.750;9.278;2023-06-14T10:41:56;25.00;54.00
3986;DHT22;2007;48.750;9.278;2023-06-14T10:44:40;25.10;54.10
3986;DHT22;2007;48.750;9.278;2023-06-14T10:47:11;25.00;54.00
3986;DHT22;2007;48.750;9.278;2023-06-14T10:49:50;25.10;54.10
3986;DHT22;2007;48.750;9.278;2023-06-14T10:52:24;25.00;54.10
3986;DHT22;2007;48.750;9.278;2023-06-14T10:55:06;25.00;54.10
3986;DHT22;2007;48.750;9.278;2023-06-14T10:57:37;25.00;54.10
3986;DHT22;2007;48.750;9.278;2023-06-14T11:00:19;25.00;54.10
3986;DHT22;2007;48.750;9.278;2023-06-14T11:05:53;25.00;54.10
3986;DHT22;2007;48.750;9.278;2023-06-14T11:08:39;25.00;54.10
3986;DHT22;2007;48.750;9.278;2023-06-14T11:11:08;25.00;54.10
3986;DHT22;2007;48.750;9.278;2023-06-14T11:13:38;25.00;54.10
3986;DHT22;2007;48.750;9.278;2023-06-14T11:16:13;25.00;54.20
3986;DHT22;2007;48.750;9.278;2023-06-14T11:18:42;25.00;54.10
3986;DHT22;2007;48.750;9.278;2023-06-14T11:21:10;25.00;54.10
3986;DHT22;2007;48.750;9.278;2023-06-14T11:23:39;25.00;54.10
3986;DHT22;2007;48.750;9.278;2023-06-14T11:26:07;25.00;54.10
3986;DHT22;2007;48.750;9.278;2023-06-14T11:28:38;25.00;54.10
3986;DHT22;2007;48.750;9.278;2023-06-14T11:31:07;25.00;54.20
3986;DHT22;2007;48.750;9.278;2023-06-14T11:33:35;25.00;54.20
3986;DHT22;2007;48.750;9.278;2023-06-14T11:36:05;25.00;54.20
3986;DHT22;2007;48.750;9.278;2023-06-14T11:38:36;25.00;54.20
3986;DHT22;2007;48.750;9.278;2023-06-14T11:41:06;25.00;54.20
3986;DHT22;2007;48.750;9.278;2023-06-14T11:43:34;25.00;54.10
3986;DHT22;2007;48.750;9.278;2023-06-14T11:46:02;25.00;54.20
3986;DHT22;2007;48.750;9.278;2023-06-14T11:48:37;25.00;54.10
3986;DHT22;2007;48.750;9.278;2023-06-14T11:51:05;25.00;54.20
3986;DHT22;2007;48.750;9.278;2023-06-14T11:53:34;25.00;54.20
3986;DHT22;2007;48.750;9.278;2023-06-14T11:56:02;25.00;54.10
3986;DHT22;2007;48.750;9.278;2023-06-14T11:58:31;25.00;54.20
3986;DHT22;2007;48.750;9.278;2023-06-14T12:00:59;25.00;54.20
3986;DHT22;2007;48.750;9.278;2023-06-14T12:03:28;25.00;54.20
3986;DHT22;2007;48.750;9.278;2023-06-14T12:06:05;25.00;54.20
3986;DHT22;2007;48.750;9.278;2023-06-14T12:08:35;25.00;54.20
3986;DHT22;2007;48.750;9.278;2023-06-14T12:11:06;25.00;54.20
3986;DHT22;2007;48.750;9.278;2023-06-14T12:13:39;25.00;54.10
3986;DHT22;2007;48.750;9.278;2023-06-14T12:16:08;25.00;54.80
3986;DHT22;2007;48.750;9.278;2023-06-14T12:18:37;25.00;54.10
3986;DHT22;2007;48.750;9.278;2023-06-14T12:21:06;25.00;54.10
3986;DHT22;2007;48.750;9.278;2023-06-14T12:23:45;25.00;54.10
3986;DHT22;2007;48.750;9.278;2023-06-14T12:26:14;25.00;54.10
3986;DHT22;2007;48.750;9.278;2023-06-14T12:28:45;25.00;54.10
3986;DHT22;2007;48.750;9.278;2023-06-14T12:31:14;25.00;54.10
3986;DHT22;2007;48.750;9.278;2023-06-14T12:33:43;25.00;54.10
3986;DHT22;2007;48.750;9.278;2023-06-14T12:36:12;25.00;54.10
3986;DHT22;2007;48.750;9.278;2023-06-14T12:38:40;25.00;54.70
3986;DHT22;2007;48.750;9.278;2023-06-14T12:41:08;25.00;54.00
3986;DHT22;2007;48.750;9.278;2023-06-14T12:43:36;25.00;54.00
3986;DHT22;2007;48.750;9.278;2023-06-14T12:46:06;25.00;54.00
3986;DHT22;2007;48.750;9.278;2023-06-14T12:48:34;25.00;54.00
3986;DHT22;2007;48.750;9.278;2023-06-14T12:51:02;25.00;53.90
3986;DHT22;2007;48.750;9.278;2023-06-14T12:53:30;25.00;53.90
3986;DHT22;2007;48.750;9.278;2023-06-14T12:55:57;25.00;53.90
3986;DHT22;2007;48.750;9.278;2023-06-14T12:58:25;25.00;53.90
3986;DHT22;2007;48.750;9.278;2023-06-14T13:00:53;25.00;53.90
3986;DHT22;2007;48.750;9.278;2023-06-14T13:03:22;25.00;54.00
3986;DHT22;2007;48.750;9.278;2023-06-14T13:05:51;25.00;54.00
3986;DHT22;2007;48.750;9.278;2023-06-14T13:08:19;25.00;54.00
3986;DHT22;2007;48.750;9.278;2023-06-14T13:10:50;25.00;54.00
3986;DHT22;2007;48.750;9.278;2023-06-14T13:13:18;25.00;54.00
3986;DHT22;2007;48.750;9.278;2023-06-14T13:15:46;25.00;53.90
3986;DHT22;2007;48.750;9.278;2023-06-14T13:18:16;25.00;53.90
3986;DHT22;2007;48.750;9.278;2023-06-14T13:20:46;25.00;54.00
3986;DHT22;2007;48.750;9.278;2023-06-14T13:23:16;25.00;53.90
3986;DHT22;2007;48.750;9.278;2023-06-14T13:25:44;25.00;54.00
3986;DHT22;2007;48.750;9.278;2023-06-14T13:28:12;25.00;53.90
3986;DHT22;2007;48.750;9.278;2023-06-14T13:30:40;25.00;53.90
3986;DHT22;2007;48.750;9.278;2023-06-14T13:33:08;25.00;53.90
3986;DHT22;2007;48.750;9.278;2023-06-14T13:35:36;25.00;53.90
3986;DHT22;2007;48.750;9.278;2023-06-14T13:38:05;25.00;53.90
3986;DHT22;2007;48.750;9.278;2023-06-14T13:40:33;25.00;53.90
3986;DHT22;2007;48.750;9.278;2023-06-14T13:43:01;25.00;54.00
3986;DHT22;2007;48.750;9.278;2023-06-14T13:45:29;25.00;54.00
3986;DHT22;2007;48.750;9.278;2023-06-14T13:47:57;25.00;54.00
3986;DHT22;2007;48.750;9.278;2023-06-14T13:50:25;25.00;54.00
3986;DHT22;2007;48.750;9.278;2023-06-14T13:52:53;25.00;54.00
3986;DHT22;2007;48.750;9.278;2023-06-14T13:55:22;25.00;54.00
3986;DHT22;2007;48.750;9.278;2023-06-14T13:57:50;25.00;54.00
3986;DHT22;2007;48.750;9.278;2023-06-14T14:00:19;25.00;54.00
3986;DHT22;2007;48.750;9.278;2023-06-14T14:02:49;25.00;54.10
3986;DHT22;2007;48.750;9.278;2023-06-14T14:05:18;25.00;54.10
3986;DHT22;2007;48.750;9.278;2023-06-14T14:07:47;25.00;54.10
3986;DHT22;2007;48.750;9.278;2023-06-14T14:10:15;25.00;54.10
3986;DHT22;2007;48.750;9.278;2023-06-14T14:12:45;25.00;54.10
3986;DHT22;2007;48.750;9.278;2023-06-14T14:15:15;25.00;54.10
3986;DHT22;2007;48.750;9.278;2023-06-14T14:17:43;25.00;54.10
3986;DHT22;2007;48.750;9.278;2023-06-14T14:20:11;25.00;54.20
3986;DHT22;2007;48.750;9.278;2023-06-14T14:22:43;25.00;54.10
3986;DHT22;2007;48.750;9.278;2023-06-14T14:25:11;25.00;54.10
3986;DHT22;2007;48.750;9.278;2023-06-14T14:27:39;25.00;54.10
3986;DHT22;2007;48.750;9.278;2023-06-14T14:30:09;25.00;54.10
3986;DHT22;2007;48.750;9.278;2023-06-14T14:32:37;25.00;54.10
3986;DHT22;2007;48.750;9.278;2023-06-14T14:35:06;25.00;54.00
3986;DHT22;2007;48.750;9.278;2023-06-14T14:37:34;25.00;54.00
3986;DHT22;2007;48.750;9.278;2023-06-14T14:40:02;25.00;54.00
3986;DHT22;2007;48.750;9.278;2023-06-14T14:42:30;25.00;54.00
3986;DHT22;2007;48.750;9.278;2023-06-14T14:44:58;25.00;54.10
3986;DHT22;2007;48.750;9.278;2023-06-14T14:47:27;25.00;54.10
3986;DHT22;2007;48.750;9.278;2023-06-14T14:49:55;25.00;54.00
3986;DHT22;2007;48.750;9.278;2023-06-14T14:52:23;25.00;54.10
3986;DHT22;2007;48.750;9.278;2023-06-14T14:54:53;25.00;54.10
3986;DHT22;2007;48.750;9.278;2023-06-14T14:57:21;25.00;54.10
3986;DHT22;2007;48.750;9.278;2023-06-14T14:59:49;25.00;54.10
3986;DHT22;2007;48.750;9.278;2023-06-14T15:02:17;25.00;54.10
3986;DHT22;2007;48.750;9.278;2023-06-14T15:04:46;25.00;54.10
3986;DHT22;2007;48.750;9.278;2023-06-14T15:07:14;25.00;54.10
3986;DHT22;2007;48.750;9.278;2023-06-14T15:09:42;25.00;54.10
3986;DHT22;2007;48.750;9.278;2023-06-14T15:12:10;25.00;54.10
3986;DHT22;2007;48.750;9.278;2023-06-14T15:14:38;25.00;54.20
3986;DHT22;2007;48.750;9.278;2023-06-14T15:17:06;25.00;54.20
3986;DHT22;2007;48.750;9.278;2023-06-14T15:19:34;25.00;54.20
3986;DHT22;2007;48.750;9.278;2023-06-14T15:22:05;25.00;54.20
3986;DHT22;2007;48.750;9.278;2023-06-14T15:24:33;25.00;54.20
3986;DHT22;2007;48.750;9.278;2023-06-14T15:27:09;25.00;54.20
3986;DHT22;2007;48.750;9.278;2023-06-14T15:29:40;25.00;54.20
3986;DHT22;2007;48.750;9.278;2023-06-14T15:32:09;25.00;54.20
3986;DHT22;2007;48.750;9.278;2023-06-14T15:34:37;25.00;54.20
3986;DHT22;2007;48.750;9.278;2023-06-14T15:37:07;25.00;54.20
3986;DHT22;2007;48.750;9.278;2023-06-14T15:39:36;25.00;54.20
3986;DHT22;2007;48.750;9.278;2023-06-14T15:42:04;25.00;54.20
3986;DHT22;2007;48.750;9.278;2023-06-14T15:44:33;25.00;54.20
3986;DHT22;2007;48.750;9.278;2023-06-14T15:47:00;25.00;54.20
3986;DHT22;2007;48.750;9.278;2023-06-14T15:49:28;25.00;54.20
3986;DHT22;2007;48.750;9.278;2023-06-14T15:51:56;25.00;54.20
3986;DHT22;2007;48.750;9.278;2023-06-14T15:54:26;25.00;54.20
3986;DHT22;2007;48.750;9.278;2023-06-14T15:56:54;25.00;54.20
3986;DHT22;2007;48.750;9.278;2023-06-14T15:59:22;25.00;54.20
3986;DHT22;2007;48.750;9.278;2023-06-14T16:01:50;25.00;54.20
3986;DHT22;2007;48.750;9.278;2023-06-14T16:04:18;25.00;54.20
3986;DHT22;2007;48.750;9.278;2023-06-14T16:06:46;25.00;54.20
3986;DHT22;2007;48.750;9.278;2023-06-14T16:09:13;25.00;54.20
3986;DHT22;2007;48.750;9.278;2023-06-14T16:11:43;25.00;54.20
3986;DHT22;2007;48.750;9.278;2023-06-14T16:14:11;25.00;54.20
3986;DHT22;2007;48.750;9.278;2023-06-14T16:16:39;25.00;54.20
3986;DHT22;2007;48.750;9.278;2023-06-14T16:19:07;25.00;54.20